»·PEaware :: N333ZS KMRY-KSBA

N333ZS :: KMRY-KSBA

FLIGHT INFORMATION

Flight Status: Arrived
Operator: Privately registered:
United States
More flights under this callsign
Pilot: Judd H. (29974)
Aircraft: CESSNA 182 SKYLANE
(C182)
More flights by this aircraft type
Origin: KMRY Monterey Peninsula
United States
Destination: KSBA Santa Barbara Mun
United States
More flights between these airports :: More routes between these airports
Route: +MRY5 SHOEY SNS V25 RZS
File this flight plan on PilotEdge
Remarks:
Altitude:
(Current/Filed)
10,000ft
Speed:
(Current/Filed)
120kts
Departed: 27-Sep-20 04:04 PM
Arrived: 27-Sep-20 05:35 PM
Distance/Time
Traveled:
163nm/1:31
Distance/Time
To Go:
Arrived

Flight Plot

Page will automatically refresh every two minutes.

Flight plan parsing failed; only flown route is shown


Map Options




Map Legend


Flown Route
Filed Route
Departure Airport
Arrival Airport
Navaid (VOR, NDB)
Fix

Horizontal Profiles

Position Reports

Time Latitude Longitude Heading Altitude Ground
Speed
27-Sep-20 15:42 36.589191 -121.858524 344 208ft 0kts
27-Sep-20 15:44 36.589191 -121.858524 344 208ft 0kts
27-Sep-20 15:45 36.589194 -121.858525 344 208ft 0kts
27-Sep-20 15:45 36.589195 -121.858525 344 208ft 0kts
27-Sep-20 15:46 36.589196 -121.858525 344 208ft 0kts
27-Sep-20 15:48 36.589198 -121.858526 344 208ft 0kts
27-Sep-20 15:48 36.589199 -121.858526 344 208ft 0kts
27-Sep-20 15:49 36.589200 -121.858527 344 208ft 0kts
27-Sep-20 15:50 36.589201 -121.858527 344 208ft 0kts
27-Sep-20 15:51 36.589202 -121.858527 344 208ft 0kts
27-Sep-20 15:52 36.589203 -121.858528 344 208ft 0kts
27-Sep-20 15:53 36.589204 -121.858528 344 208ft 0kts
27-Sep-20 15:54 36.589205 -121.858528 344 208ft 0kts
27-Sep-20 15:55 36.589206 -121.858529 344 208ft 0kts
27-Sep-20 15:56 36.589207 -121.858529 344 208ft 0kts
27-Sep-20 15:57 36.589209 -121.858530 344 208ft 0kts
27-Sep-20 15:58 36.588960 -121.852916 111 208ft 26kts
27-Sep-20 15:59 36.586147 -121.844625 113 208ft 25kts
27-Sep-20 16:00 36.584144 -121.838881 111 208ft 0kts
27-Sep-20 16:01 36.582851 -121.833867 68 208ft 1kts
27-Sep-20 16:02 36.583248 -121.833575 296 208ft 4kts
27-Sep-20 16:03 36.585859 -121.840856 293 227ft 89kts
27-Sep-20 16:04 36.597441 -121.876056 295 961ft 119kts
27-Sep-20 16:05 36.617303 -121.909400 308 1664ft 125kts
27-Sep-20 16:06 36.637988 -121.944969 307 2232ft 127kts
27-Sep-20 16:07 36.657807 -121.981331 306 2820ft 126kts
27-Sep-20 16:08 36.676840 -122.017715 306 3413ft 124kts
27-Sep-20 16:09 36.695242 -122.053049 308 4096ft 119kts
27-Sep-20 16:10 36.713816 -122.086856 308 4798ft 116kts
27-Sep-20 16:11 36.731462 -122.119996 299 5498ft 115kts
27-Sep-20 16:12 36.752244 -122.136475 45 6214ft 108kts
27-Sep-20 16:13 36.743474 -122.101093 118 6937ft 116kts
27-Sep-20 16:14 36.734611 -122.057892 91 7009ft 141kts
27-Sep-20 16:15 36.719402 -122.017427 135 7594ft 139kts
27-Sep-20 16:16 36.689547 -121.982313 134 8170ft 139kts
27-Sep-20 16:17 36.664204 -121.949511 127 8754ft 126kts
27-Sep-20 16:18 36.639383 -121.915776 128 9012ft 144kts
27-Sep-20 16:19 36.611418 -121.877067 127 9002ft 152kts
27-Sep-20 16:20 36.582972 -121.837480 127 9001ft 153kts
27-Sep-20 16:21 36.556648 -121.801197 127 9520ft 133kts
27-Sep-20 16:22 36.532652 -121.768529 127 10114ft 124kts
27-Sep-20 16:23 36.509159 -121.736622 127 10625ft 125kts
27-Sep-20 16:24 36.485396 -121.703906 128 11003ft 135kts
27-Sep-20 16:25 36.458749 -121.665924 127 11003ft 151kts
27-Sep-20 16:26 36.431045 -121.625952 127 11001ft 153kts
27-Sep-20 16:27 36.399874 -121.589235 134 10999ft 154kts
27-Sep-20 16:28 36.369234 -121.552046 129 11000ft 153kts
27-Sep-20 16:29 36.340510 -121.513006 129 11000ft 153kts
27-Sep-20 16:30 36.311612 -121.473868 129 11000ft 153kts
27-Sep-20 16:31 36.282666 -121.434679 129 11000ft 153kts
27-Sep-20 16:32 36.254482 -121.395104 127 10999ft 153kts
27-Sep-20 16:33 36.225904 -121.355590 129 11000ft 153kts
27-Sep-20 16:34 36.197481 -121.316391 129 10992ft 152kts
27-Sep-20 16:35 36.168546 -121.278242 133 10994ft 151kts
27-Sep-20 16:36 36.138362 -121.241436 133 10982ft 151kts
27-Sep-20 16:37 36.108540 -121.204734 132 10982ft 151kts
27-Sep-20 16:38 36.079143 -121.168325 131 10984ft 149kts
27-Sep-20 16:39 36.051350 -121.130233 129 10985ft 148kts
27-Sep-20 16:40 36.023688 -121.092335 129 10985ft 148kts
27-Sep-20 16:41 35.996086 -121.054416 129 10986ft 148kts
27-Sep-20 16:42 35.968505 -121.016362 129 10985ft 148kts
27-Sep-20 16:43 35.940897 -120.978313 129 10986ft 149kts
27-Sep-20 16:44 35.913136 -120.940119 129 10986ft 149kts
27-Sep-20 16:45 35.885028 -120.902586 134 10987ft 149kts
27-Sep-20 16:46 35.855138 -120.866829 133 10985ft 150kts
27-Sep-20 16:47 35.825109 -120.830934 133 10985ft 150kts
27-Sep-20 16:48 35.795063 -120.795083 133 10985ft 150kts
27-Sep-20 16:49 35.779447 -120.776465 133 10986ft 150kts
27-Sep-20 17:06 35.176976 -120.262202 147 10989ft 152kts
27-Sep-20 17:07 35.141281 -120.234732 140 10990ft 151kts
27-Sep-20 17:08 35.106777 -120.205238 145 10992ft 151kts
27-Sep-20 17:09 35.070605 -120.178650 147 10994ft 151kts
27-Sep-20 17:10 35.033996 -120.152884 147 10998ft 152kts
27-Sep-20 17:11 34.997540 -120.127311 147 11003ft 151kts
27-Sep-20 17:12 34.961025 -120.101750 147 11003ft 151kts
27-Sep-20 17:13 34.924265 -120.076087 147 10943ft 155kts
27-Sep-20 17:14 34.887139 -120.050577 147 10257ft 141kts
27-Sep-20 17:15 34.854341 -120.025954 141 9543ft 137kts
27-Sep-20 17:16 34.820696 -120.010959 183 9137ft 138kts
27-Sep-20 17:17 34.778160 -120.015325 183 8602ft 162kts
27-Sep-20 17:18 34.732629 -120.023777 193 8028ft 165kts
27-Sep-20 17:19 34.690769 -120.043591 203 7642ft 162kts
27-Sep-20 17:20 34.650743 -120.064073 204 7165ft 147kts
27-Sep-20 17:21 34.611953 -120.083997 204 6484ft 152kts
27-Sep-20 17:22 34.572827 -120.104165 204 5804ft 152kts
27-Sep-20 17:23 34.534040 -120.124226 203 5164ft 149kts
27-Sep-20 17:24 34.497224 -120.142968 204 4466ft 137kts
27-Sep-20 17:25 34.463173 -120.157308 173 4111ft 124kts
27-Sep-20 17:27 34.443076 -120.124955 112 4113ft 130kts
27-Sep-20 17:28 34.427317 -120.086032 111 3604ft 110kts
27-Sep-20 17:29 34.422456 -120.053234 75 3046ft 104kts
27-Sep-20 17:30 34.423935 -120.017331 86 2680ft 118kts
27-Sep-20 17:31 34.425270 -119.975546 87 1977ft 121kts
27-Sep-20 17:32 34.425756 -119.937562 88 1308ft 107kts
27-Sep-20 17:33 34.426807 -119.901519 89 826ft 104kts
27-Sep-20 17:34 34.427264 -119.868248 91 276ft 94kts
27-Sep-20 17:35 34.427767 -119.843294 89 13ft 24kts
27-Sep-20 17:36 34.427083 -119.841525 161 13ft 0kts
27-Sep-20 17:37 34.423641 -119.840194 125 13ft 16kts
27-Sep-20 17:38 34.423233 -119.836240 82 13ft 10kts
27-Sep-20 17:39 34.423560 -119.835837 341 13ft 0kts
27-Sep-20 17:40 34.423560 -119.835837 341 13ft 0kts
27-Sep-20 17:41 34.423560 -119.835837 341 13ft 0kts

Navigation Log

Ident Type
Flight plan parsing failed, navigation log unavailable